Here is the Quick Look data you requested

The Data originates at the National Weather Service, and is made available here by the UAlbany Department of Atmospheric and Environmental Sciences

Surface Observations

KCVG 031152Z 27005KT 10SM FEW140 05/02 A3012 RMK AO2 SLP199 T00500022 10089
 20050 53017=
KCVG 031252Z 00000KT 10SM SCT130 10/04 A3012 RMK AO2 SLP200 T01000039=
KCVG 031352Z 00000KT 10SM FEW130 13/04 A3012 RMK AO2 SLP197 T01280039=
KCVG 031452Z 00000KT 10SM SCT140 14/02 A3012 RMK AO2 SLP197 T01440017 50000=
KCVG 031552Z 05003KT 10SM FEW140 16/02 A3011 RMK AO2 SLP195 T01560022=
KCVG 031652Z 00000KT 10SM BKN110 17/01 A3010 RMK AO2 SLP189 T01670011=
KCVG 031752Z 04005KT 10SM SCT110 BKN140 18/02 A3007 RMK AO2 SLP179 T01780022
 10189 20050 58016=
KCVG 031852Z 16004KT 10SM BKN110 BKN140 18/02 A3005 RMK AO2 SLP175 T01780022=
KCVG 031952Z VRB04KT 10SM FEW110 BKN140 BKN250 19/02 A3003 RMK AO2 SLP167
 T01890022=
KCVG 032052Z 36003KT 10SM FEW110 SCT130 BKN250 20/01 A3002 RMK AO2 SLP162
 T02000011 56017=
KCVG 032152Z 06005KT 10SM FEW140 SCT250 19/02 A3001 RMK AO2 SLP159 T01940017=
KCVG 032252Z 33005KT 10SM FEW140 FEW250 19/03 A3002 RMK AO2 SLP162 T01940028=
KCVG 032352Z 35003KT 10SM FEW100 FEW250 17/02 A3001 RMK AO2 SLP161 T01720022
 10206 20167 56003=
KCVG 040052Z 03003KT 10SM FEW100 FEW250 17/02 A3001 RMK AO2 SLP159 T01670022=
KCVG 040152Z 01003KT 10SM FEW090 FEW250 15/03 A3002 RMK AO2 SLP161 T01500028=
KCVG 040252Z 01003KT 10SM FEW090 13/03 A3002 RMK AO2 SLP161 T01330033 52002=
KCVG 040352Z 00000KT 10SM CLR 13/02 A3002 RMK AO2 SLP161 T01280022=
KCVG 040452Z 00000KT 10SM FEW100 13/03 A3001 RMK AO2 SLP158 T01280028 402060050=
KCVG 040552Z 00000KT 10SM FEW100 12/03 A3001 RMK AO2 SLP156 T01170028 10178
 20106 58004=
KCVG 040652Z 00000KT 10SM SCT100 12/03 A3000 RMK AO2 SLP155 T01220028=
KCVG 040752Z 05004KT 9SM FEW100 12/04 A3000 RMK AO2 SLP153 T01170039=
KCVG 040852Z 00000KT 10SM FEW100 11/03 A3000 RMK AO2 SLP155 T01110033 55001=
KCVG 040952Z 00000KT 9SM SCT100 08/03 A3001 RMK AO2 SLP160 T00830033=
KCVG 041052Z 00000KT 9SM BKN075 OVC150 08/04 A3002 RMK AO2 SLP161 T00780039=
KCVG 041152Z 17004KT 7SM OVC080 10/04 A3003 RMK AO2 SLP166 OCNL BINOVC
 T01000039 10122 20067 53010=